Time;durP1;ratioP1;P1;durP2;ratioP2;P2;SDS_P1;SDS_P2;PMS_P1;PMS_P2;Temp;Humidity;BMP_temperature;BMP_pressure;BME280_temperature;BME280_humidity;BME280_pressure;Samples;Min_cycle;Max_cycle;Signal;HPM_P1;HPM_P2
2023/12/17 00:02:06;;;;;;;4.97;4.50;;;2.90;63.80;;;;;;5036019;28;20237;-65
2023/12/17 00:04:32;;;;;;;5.40;4.90;;;2.90;63.70;;;;;;5047163;28;20311;-66
2023/12/17 00:06:59;;;;;;;5.43;4.93;;;3.00;63.60;;;;;;5039522;28;20672;-65
2023/12/17 00:09:26;;;;;;;5.40;4.87;;;2.90;63.70;;;;;;5039841;28;20233;-65
2023/12/17 00:11:52;;;;;;;6.33;4.10;;;2.90;62.80;;;;;;5043992;28;20202;-65
2023/12/17 00:14:19;;;;;;;4.53;4.13;;;3.00;62.40;;;;;;5040085;28;20229;-65
2023/12/17 00:16:45;;;;;;;4.80;4.10;;;2.90;62.40;;;;;;5049931;28;20236;-66
2023/12/17 00:19:12;;;;;;;5.00;4.43;;;3.00;61.90;;;;;;5042023;28;20664;-63
2023/12/17 00:21:38;;;;;;;4.80;4.30;;;3.00;62.50;;;;;;5045225;28;20205;-64
2023/12/17 00:24:05;;;;;;;4.80;4.40;;;3.00;61.80;;;;;;5046082;28;20268;-65
2023/12/17 00:26:31;;;;;;;4.80;4.17;;;3.00;61.80;;;;;;5038124;28;20262;-66
2023/12/17 00:28:58;;;;;;;5.60;4.00;;;3.00;61.80;;;;;;5042937;28;20672;-65
2023/12/17 00:31:24;;;;;;;5.50;3.90;;;3.10;61.90;;;;;;5042484;28;20241;-65
2023/12/17 00:33:51;;;;;;;4.20;3.80;;;3.00;61.80;;;;;;5042948;28;20205;-66
2023/12/17 00:36:17;;;;;;;4.77;3.70;;;3.00;61.80;;;;;;5037777;28;20253;-65
2023/12/17 00:38:44;;;;;;;4.63;3.93;;;3.10;62.20;;;;;;5039872;28;20722;-65
2023/12/17 00:41:10;;;;;;;3.97;3.67;;;3.00;62.50;;;;;;5044777;28;20248;-66
2023/12/17 00:43:37;;;;;;;4.40;3.80;;;3.00;61.80;;;;;;5042641;28;20258;-65
2023/12/17 00:46:03;;;;;;;5.10;4.10;;;3.10;61.90;;;;;;5042458;28;20264;-64
2023/12/17 00:48:31;;;;;;;4.07;3.60;;;3.10;61.90;;;;;;5040743;28;20296;-65
2023/12/17 00:50:57;;;;;;;4.10;3.60;;;3.10;61.90;;;;;;5050742;28;20214;-65
2023/12/17 00:53:24;;;;;;;4.13;3.73;;;3.00;61.80;;;;;;5047922;28;20298;-66
2023/12/17 00:55:50;;;;;;;4.97;3.93;;;2.90;62.10;;;;;;5044293;28;20593;-66
2023/12/17 00:58:17;;;;;;;3.70;3.40;;;3.00;62.20;;;;;;5042731;28;20242;-65
2023/12/17 01:00:43;;;;;;;4.93;4.10;;;3.00;62.40;;;;;;5041849;28;20233;-66
2023/12/17 01:03:10;;;;;;;5.30;3.90;;;3.00;62.10;;;;;;5042715;28;20271;-63
2023/12/17 01:05:37;;;;;;;5.60;4.10;;;3.00;62.30;;;;;;5040483;28;20283;-64
2023/12/17 01:08:03;;;;;;;4.03;3.70;;;3.10;61.90;;;;;;5044369;28;20221;-65
2023/12/17 01:10:31;;;;;;;4.13;3.73;;;3.00;62.10;;;;;;5041519;28;20206;-66
2023/12/17 01:12:57;;;;;;;4.20;3.80;;;3.00;62.20;;;;;;5038329;28;20293;-65
2023/12/17 01:15:24;;;;;;;3.83;3.53;;;3.00;62.50;;;;;;5043102;28;20260;-65
2023/12/17 01:17:50;;;;;;;4.80;3.70;;;3.00;63.40;;;;;;5039970;28;20248;-65
2023/12/17 01:20:17;;;;;;;4.63;4.00;;;3.00;62.40;;;;;;5039065;28;20238;-63
2023/12/17 01:22:43;;;;;;;4.47;4.07;;;2.90;62.60;;;;;;5052234;28;20237;-67
2023/12/17 01:25:10;;;;;;;5.30;4.77;;;2.90;62.60;;;;;;5051539;28;20237;-65
2023/12/17 01:27:36;;;;;;;4.53;4.13;;;2.80;62.50;;;;;;5052823;28;20240;-65
2023/12/17 01:30:03;;;;;;;5.00;4.50;;;2.80;63.80;;;;;;5048168;28;20347;-65
2023/12/17 01:32:29;;;;;;;5.23;4.77;;;2.90;63.20;;;;;;5049309;28;20237;-65
2023/12/17 01:34:56;;;;;;;5.83;5.33;;;2.80;62.80;;;;;;5045866;28;20254;-65
2023/12/17 01:37:22;;;;;;;5.60;5.10;;;2.70;63.30;;;;;;5046107;28;20351;-66
2023/12/17 01:39:49;;;;;;;6.07;4.30;;;2.70;63.90;;;;;;5034337;28;20246;-66
2023/12/17 01:42:15;;;;;;;7.63;4.70;;;2.80;63.30;;;;;;5048605;28;20210;-65
2023/12/17 01:44:42;;;;;;;4.90;4.47;;;2.70;63.60;;;;;;5043205;28;20271;-65
2023/12/17 01:47:09;;;;;;;6.10;5.27;;;2.70;63.40;;;;;;5039048;28;20212;-66
2023/12/17 01:49:35;;;;;;;5.10;4.57;;;2.70;63.50;;;;;;5044362;28;20248;-65
2023/12/17 01:52:01;;;;;;;5.70;4.53;;;2.70;63.90;;;;;;5045862;28;20251;-65
2023/12/17 01:54:28;;;;;;;4.90;4.40;;;2.70;64.00;;;;;;5045083;28;20559;-65
2023/12/17 01:56:54;;;;;;;4.93;4.43;;;2.70;63.50;;;;;;5045926;28;20286;-65
2023/12/17 01:59:21;;;;;;;4.90;4.40;;;2.70;63.20;;;;;;5045517;28;20210;-66
2023/12/17 02:01:48;;;;;;;6.57;4.27;;;2.70;63.60;;;;;;5045675;28;20210;-66
2023/12/17 02:04:14;;;;;;;4.50;4.10;;;2.70;64.20;;;;;;5046657;28;20257;-66
2023/12/17 02:06:41;;;;;;;5.13;4.63;;;2.70;64.20;;;;;;5041708;28;20250;-65
2023/12/17 02:09:08;;;;;;;6.07;5.43;;;2.60;64.30;;;;;;5042218;28;20244;-63
2023/12/17 02:11:34;;;;;;;5.27;4.87;;;2.60;63.80;;;;;;5043200;28;20206;-65
2023/12/17 02:14:01;;;;;;;5.37;4.50;;;2.70;63.50;;;;;;5045397;28;20259;-65
2023/12/17 02:16:27;;;;;;;5.43;4.93;;;2.50;64.30;;;;;;5054925;28;20229;-65
2023/12/17 02:18:54;;;;;;;4.60;4.20;;;2.40;64.70;;;;;;5044546;28;20680;-66
2023/12/17 02:21:20;;;;;;;4.70;4.30;;;2.50;65.10;;;;;;5037412;28;20230;-65
2023/12/17 02:23:47;;;;;;;4.40;4.00;;;2.40;64.20;;;;;;5042881;28;20237;-63
2023/12/17 02:26:13;;;;;;;5.43;4.47;;;2.50;64.50;;;;;;5044483;28;20254;-65
2023/12/17 02:28:40;;;;;;;4.83;4.07;;;2.50;64.60;;;;;;5042903;28;20590;-65
2023/12/17 02:31:06;;;;;;;6.67;5.13;;;2.40;65.40;;;;;;5041977;28;20689;-66
2023/12/17 02:33:33;;;;;;;6.40;4.30;;;2.40;64.80;;;;;;5048738;28;20655;-66
2023/12/17 02:35:59;;;;;;;4.63;4.23;;;2.40;65.50;;;;;;5041616;28;20268;-64
2023/12/17 02:38:26;;;;;;;6.17;5.07;;;2.40;65.00;;;;;;5034738;28;20214;-65
2023/12/17 02:40:52;;;;;;;5.70;5.17;;;2.30;65.00;;;;;;5049264;28;20244;-65
2023/12/17 02:43:19;;;;;;;6.27;5.10;;;2.30;64.70;;;;;;5049202;28;20240;-65
2023/12/17 02:45:45;;;;;;;6.43;5.23;;;2.30;65.50;;;;;;5044356;28;20253;-65
2023/12/17 02:48:12;;;;;;;6.03;5.23;;;2.30;65.20;;;;;;5046373;28;20234;-65
2023/12/17 02:50:38;;;;;;;6.60;5.20;;;2.30;65.10;;;;;;5049208;28;20248;-65
2023/12/17 02:53:05;;;;;;;5.47;4.90;;;2.40;64.90;;;;;;5040385;28;20210;-64
2023/12/17 02:55:31;;;;;;;5.70;5.20;;;2.40;64.90;;;;;;5036462;28;20271;-65
2023/12/17 02:57:58;;;;;;;6.70;5.63;;;2.40;64.30;;;;;;5048063;28;20683;-66
2023/12/17 03:00:24;;;;;;;5.87;5.27;;;2.40;64.80;;;;;;5044544;28;20202;-66
2023/12/17 03:02:51;;;;;;;6.20;4.67;;;2.40;64.00;;;;;;5044314;28;20237;-63
2023/12/17 03:05:17;;;;;;;4.67;4.13;;;2.30;64.10;;;;;;5044221;28;20648;-65
2023/12/17 03:07:44;;;;;;;5.23;4.10;;;2.30;64.80;;;;;;5048814;28;20246;-65
2023/12/17 03:10:10;;;;;;;7.37;4.60;;;2.40;64.40;;;;;;5040868;28;20226;-66
2023/12/17 03:12:37;;;;;;;4.50;4.03;;;2.40;63.70;;;;;;5040177;28;20209;-65
2023/12/17 03:15:03;;;;;;;3.83;3.47;;;2.30;63.70;;;;;;5037598;28;20249;-65
2023/12/17 03:17:30;;;;;;;3.93;3.63;;;2.30;64.20;;;;;;5044349;28;20283;-65
2023/12/17 03:19:56;;;;;;;4.57;3.60;;;2.20;64.00;;;;;;5040785;28;20744;-63
2023/12/17 03:22:23;;;;;;;3.50;3.10;;;2.10;64.30;;;;;;5040611;28;20236;-65
2023/12/17 03:24:49;;;;;;;4.27;3.80;;;2.20;63.80;;;;;;5048124;28;20265;-65
2023/12/17 03:27:16;;;;;;;4.23;3.90;;;2.00;64.30;;;;;;5043396;28;20232;-65
2023/12/17 03:29:42;;;;;;;5.17;4.63;;;2.00;64.80;;;;;;5040056;28;20243;-65
2023/12/17 03:32:09;;;;;;;7.10;4.40;;;2.10;65.00;;;;;;5031779;28;20279;-65
2023/12/17 03:34:35;;;;;;;5.50;4.50;;;2.20;64.60;;;;;;5041882;28;20243;-65
2023/12/17 03:37:02;;;;;;;4.40;4.00;;;2.20;64.50;;;;;;5043981;28;20305;-66
2023/12/17 03:39:28;;;;;;;5.17;4.33;;;2.10;63.10;;;;;;5043348;28;20237;-66
2023/12/17 03:41:55;;;;;;;5.03;4.40;;;2.00;63.30;;;;;;5046859;28;20241;-66
2023/12/17 03:44:21;;;;;;;3.70;3.40;;;2.00;64.10;;;;;;5047824;28;20306;-66
2023/12/17 03:46:48;;;;;;;3.50;3.20;;;2.00;64.10;;;;;;5043567;28;20606;-66
2023/12/17 03:49:14;;;;;;;3.10;2.90;;;2.00;63.60;;;;;;5043017;28;20229;-65
2023/12/17 03:51:41;;;;;;;3.37;3.17;;;2.00;64.10;;;;;;5034771;28;20248;-64
2023/12/17 03:54:07;;;;;;;3.90;3.07;;;2.20;63.80;;;;;;5043093;28;20229;-64
2023/12/17 03:56:34;;;;;;;3.50;3.17;;;2.10;62.90;;;;;;5042820;28;20256;-65
2023/12/17 03:59:00;;;;;;;3.23;2.90;;;2.10;62.90;;;;;;5046502;28;20242;-65
2023/12/17 04:01:27;;;;;;;3.23;2.93;;;2.20;63.50;;;;;;5039781;28;20822;-66
2023/12/17 04:03:53;;;;;;;3.83;3.47;;;2.20;63.00;;;;;;5039704;28;20260;-66
2023/12/17 04:06:20;;;;;;;3.87;3.57;;;2.20;62.00;;;;;;5040006;28;20276;-64
2023/12/17 04:08:46;;;;;;;3.97;3.67;;;2.20;62.00;;;;;;5039703;28;20240;-64
2023/12/17 04:11:13;;;;;;;3.60;3.30;;;2.20;62.30;;;;;;5043103;28;20421;-65
2023/12/17 04:13:39;;;;;;;4.67;3.23;;;2.10;61.90;;;;;;5050921;28;20625;-63
2023/12/17 04:16:06;;;;;;;3.57;3.27;;;2.20;62.80;;;;;;5045601;28;20305;-66
2023/12/17 04:18:32;;;;;;;3.80;3.50;;;2.10;61.80;;;;;;5041858;28;20247;-66
2023/12/17 04:20:59;;;;;;;3.57;3.30;;;2.10;62.70;;;;;;5043454;28;20283;-65
2023/12/17 04:23:25;;;;;;;3.07;2.87;;;2.10;62.80;;;;;;5033749;28;20241;-65
2023/12/17 04:25:52;;;;;;;4.00;3.70;;;2.00;61.50;;;;;;5035993;28;20879;-65
2023/12/17 04:28:18;;;;;;;3.20;2.90;;;2.10;62.20;;;;;;5051082;28;20263;-66
2023/12/17 04:30:45;;;;;;;3.83;3.43;;;2.00;62.10;;;;;;5042546;28;20241;-65
2023/12/17 04:33:11;;;;;;;3.77;3.43;;;2.00;62.20;;;;;;5043839;28;20237;-66
2023/12/17 04:35:38;;;;;;;4.13;3.63;;;1.90;62.50;;;;;;5039755;28;20259;-65
2023/12/17 04:38:05;;;;;;;5.10;3.70;;;2.00;63.80;;;;;;5044499;28;20651;-63
2023/12/17 04:40:32;;;;;;;3.90;3.60;;;2.00;62.40;;;;;;5041837;28;20240;-65
2023/12/17 04:42:58;;;;;;;3.73;3.43;;;1.90;62.60;;;;;;5039897;28;20279;-66
2023/12/17 04:45:25;;;;;;;3.60;3.30;;;1.90;62.70;;;;;;5045807;28;20752;-65
2023/12/17 04:47:51;;;;;;;3.60;3.30;;;1.90;62.70;;;;;;5042801;28;20236;-65
2023/12/17 04:50:18;;;;;;;3.63;3.30;;;2.00;62.60;;;;;;5054794;28;20269;-66
2023/12/17 04:52:44;;;;;;;3.60;3.30;;;2.00;62.60;;;;;;5041493;28;20617;-65
2023/12/17 04:55:11;;;;;;;3.80;3.50;;;2.00;62.80;;;;;;5042860;28;20256;-65
2023/12/17 04:57:37;;;;;;;3.27;2.97;;;2.00;62.40;;;;;;5045196;28;20588;-65
2023/12/17 05:00:05;;;;;;;3.60;3.30;;;1.90;62.90;;;;;;5041044;28;20259;-65
2023/12/17 05:02:32;;;;;;;4.20;3.90;;;2.00;62.70;;;;;;5044883;28;20202;-65
2023/12/17 05:04:58;;;;;;;3.67;3.37;;;2.10;62.60;;;;;;5055951;28;20294;-67
2023/12/17 05:07:25;;;;;;;3.53;3.23;;;2.00;62.30;;;;;;5055209;28;20213;-66
2023/12/17 05:09:52;;;;;;;3.90;3.53;;;2.00;62.80;;;;;;5046760;28;20217;-66
2023/12/17 05:12:19;;;;;;;3.73;3.37;;;2.00;63.20;;;;;;5054507;28;20209;-65
2023/12/17 05:14:45;;;;;;;3.70;3.40;;;2.10;62.10;;;;;;5054155;28;20245;-66
2023/12/17 05:17:12;;;;;;;4.43;3.70;;;2.00;62.00;;;;;;5047012;28;20242;-65
2023/12/17 05:19:38;;;;;;;3.37;3.07;;;1.90;62.60;;;;;;5048270;28;20298;-65
2023/12/17 05:22:05;;;;;;;4.70;3.00;;;2.00;63.40;;;;;;5046494;28;20252;-65
2023/12/17 05:24:31;;;;;;;3.20;2.90;;;2.10;62.70;;;;;;5053244;28;20217;-65
2023/12/17 05:26:57;;;;;;;3.50;3.20;;;2.10;62.90;;;;;;5042921;28;20311;-65
2023/12/17 05:29:24;;;;;;;3.40;3.10;;;2.10;62.90;;;;;;5045759;28;20212;-66
2023/12/17 05:31:50;;;;;;;3.60;3.30;;;2.10;62.70;;;;;;5042626;28;20245;-65
2023/12/17 05:34:17;;;;;;;5.43;4.93;;;2.10;63.00;;;;;;5041525;28;20205;-66
2023/12/17 05:36:43;;;;;;;4.33;3.40;;;2.10;63.10;;;;;;5047517;28;20316;-65
2023/12/17 05:39:10;;;;;;;3.83;3.47;;;2.10;63.10;;;;;;5051460;28;20240;-66
2023/12/17 05:41:36;;;;;;;3.40;3.10;;;2.20;63.20;;;;;;5048102;28;20236;-66
2023/12/17 05:44:03;;;;;;;3.33;3.03;;;2.00;63.40;;;;;;5045232;28;20205;-65
2023/12/17 05:46:30;;;;;;;3.27;2.87;;;1.90;62.70;;;;;;5048334;28;20664;-66
2023/12/17 05:48:56;;;;;;;4.13;3.40;;;1.90;64.10;;;;;;5043196;28;20251;-65
2023/12/17 05:51:23;;;;;;;3.70;3.40;;;2.00;63.70;;;;;;5042199;28;20249;-66
2023/12/17 05:53:49;;;;;;;5.30;3.53;;;2.00;62.90;;;;;;5035302;28;20680;-65
2023/12/17 05:56:16;;;;;;;3.67;3.43;;;2.00;62.50;;;;;;5041228;28;20218;-65
2023/12/17 05:58:43;;;;;;;3.60;3.23;;;2.00;63.30;;;;;;5045345;28;20213;-65
2023/12/17 06:01:10;;;;;;;3.70;3.37;;;2.00;63.10;;;;;;5045716;28;20228;-65
2023/12/17 06:03:36;;;;;;;4.90;3.60;;;1.90;63.70;;;;;;5043832;28;20264;-65
2023/12/17 06:06:03;;;;;;;3.30;3.00;;;2.00;63.90;;;;;;5041807;28;20269;-65
2023/12/17 06:08:29;;;;;;;4.13;3.30;;;2.00;63.90;;;;;;5042657;28;20264;-65
2023/12/17 06:10:56;;;;;;;3.70;3.40;;;2.00;63.70;;;;;;5040112;28;20576;-65
2023/12/17 06:13:23;;;;;;;3.53;2.93;;;2.10;63.00;;;;;;5045526;28;20213;-63
2023/12/17 06:15:49;;;;;;;3.03;2.83;;;2.00;62.50;;;;;;5041155;28;20659;-64
2023/12/17 06:18:16;;;;;;;3.00;2.80;;;2.10;62.80;;;;;;5042139;28;20237;-63
2023/12/17 06:20:43;;;;;;;3.20;2.90;;;2.00;60.90;;;;;;5048210;28;20216;-65
2023/12/17 06:23:11;;;;;;;4.00;2.43;;;2.00;61.50;;;;;;5043169;28;20202;-65
2023/12/17 06:25:37;;;;;;;3.10;2.80;;;2.00;61.50;;;;;;5042731;28;20637;-65
2023/12/17 06:28:04;;;;;;;3.37;3.17;;;2.10;61.80;;;;;;5039472;28;20241;-65
2023/12/17 06:30:32;;;;;;;3.10;2.90;;;2.10;61.00;;;;;;5038624;28;20749;-64
2023/12/17 06:32:59;;;;;;;3.37;3.10;;;2.20;61.60;;;;;;5044866;28;20211;-65
2023/12/17 06:35:25;;;;;;;3.83;3.00;;;2.10;61.80;;;;;;5044339;28;20262;-62
2023/12/17 06:37:52;;;;;;;2.93;2.73;;;2.10;61.50;;;;;;5041261;28;20647;-66
2023/12/17 06:40:18;;;;;;;3.20;2.90;;;2.10;62.30;;;;;;5041037;28;20295;-65
2023/12/17 06:42:45;;;;;;;3.10;2.90;;;2.10;62.00;;;;;;5042309;28;20239;-71
2023/12/17 06:45:11;;;;;;;3.63;3.33;;;2.00;62.00;;;;;;5032470;28;20260;-65
2023/12/17 06:47:38;;;;;;;3.30;3.00;;;2.10;62.10;;;;;;5049174;28;20198;-65
2023/12/17 06:50:04;;;;;;;3.60;3.30;;;2.10;61.90;;;;;;5041802;28;20252;-65
2023/12/17 06:52:31;;;;;;;4.70;3.33;;;2.00;62.00;;;;;;5051592;28;20213;-66
2023/12/17 06:54:57;;;;;;;4.37;3.33;;;2.00;62.00;;;;;;5045420;28;20264;-65
2023/12/17 06:57:24;;;;;;;3.37;3.17;;;2.00;62.60;;;;;;5044373;28;20208;-66
2023/12/17 06:59:50;;;;;;;3.77;3.47;;;2.00;62.90;;;;;;5040724;28;20238;-64
2023/12/17 07:02:17;;;;;;;5.00;3.37;;;2.00;62.20;;;;;;5035882;28;20241;-65
2023/12/17 07:04:43;;;;;;;4.17;3.30;;;2.00;63.00;;;;;;5047595;28;20699;-64
2023/12/17 07:07:10;;;;;;;5.07;3.30;;;2.00;63.10;;;;;;5043768;28;20268;-65
2023/12/17 07:09:36;;;;;;;4.50;3.17;;;2.00;62.90;;;;;;5042345;28;20249;-65
2023/12/17 07:12:03;;;;;;;4.57;3.60;;;2.00;62.50;;;;;;5050228;28;20692;-65
2023/12/17 07:14:29;;;;;;;3.90;3.53;;;2.00;62.70;;;;;;5042843;28;20208;-66
2023/12/17 07:16:56;;;;;;;3.80;3.50;;;2.00;62.50;;;;;;5046178;28;20634;-65
2023/12/17 07:19:22;;;;;;;3.53;3.27;;;2.00;62.00;;;;;;5029846;28;20212;-65
2023/12/17 07:21:49;;;;;;;4.00;3.70;;;2.00;62.70;;;;;;5031733;28;20242;-65
2023/12/17 07:24:15;;;;;;;4.30;3.90;;;1.90;63.20;;;;;;5045333;28;20621;-66
2023/12/17 07:26:42;;;;;;;4.13;3.50;;;2.00;63.30;;;;;;5046584;28;20275;-65
2023/12/17 07:29:09;;;;;;;5.00;4.10;;;2.00;63.80;;;;;;5046387;28;20282;-66
2023/12/17 07:31:35;;;;;;;5.47;3.63;;;1.90;63.20;;;;;;5042387;28;20213;-65
2023/12/17 07:34:01;;;;;;;5.07;3.50;;;1.90;64.30;;;;;;5041020;28;20257;-66
2023/12/17 07:36:28;;;;;;;4.90;4.30;;;2.00;64.40;;;;;;5037602;28;20313;-65
2023/12/17 07:38:55;;;;;;;4.30;3.90;;;2.10;63.60;;;;;;5044452;28;20216;-65
2023/12/17 07:41:21;;;;;;;4.23;3.80;;;2.20;63.70;;;;;;5042549;28;20683;-63
2023/12/17 07:43:48;;;;;;;4.10;3.80;;;2.20;63.30;;;;;;5037084;28;20226;-65
2023/12/17 07:46:14;;;;;;;4.60;4.00;;;2.20;63.60;;;;;;5046275;28;20260;-66
2023/12/17 07:48:41;;;;;;;4.20;3.80;;;2.10;64.50;;;;;;5041523;28;20258;-65
2023/12/17 07:51:08;;;;;;;5.80;3.90;;;2.30;64.20;;;;;;5045653;28;20229;-65
2023/12/17 07:53:34;;;;;;;3.97;3.60;;;2.30;63.60;;;;;;5041918;28;20212;-65
2023/12/17 07:56:01;;;;;;;4.47;3.80;;;2.40;63.40;;;;;;5046274;28;20284;-66
2023/12/17 07:58:28;;;;;;;6.33;4.40;;;2.40;63.20;;;;;;5038249;28;20232;-66
2023/12/17 08:00:55;;;;;;;4.27;3.87;;;2.30;63.60;;;;;;5049541;28;20206;-65
2023/12/17 08:03:21;;;;;;;4.70;4.20;;;2.40;64.50;;;;;;5029086;28;20300;-66
2023/12/17 08:05:48;;;;;;;4.20;3.80;;;2.50;64.20;;;;;;5042668;28;20225;-66
2023/12/17 08:08:15;;;;;;;3.90;3.60;;;2.70;63.70;;;;;;5040670;28;20341;-63
2023/12/17 08:10:41;;;;;;;4.40;3.97;;;2.80;62.70;;;;;;5044313;28;20205;-64
2023/12/17 08:13:08;;;;;;;4.20;3.80;;;2.90;61.70;;;;;;5051083;28;20679;-65
2023/12/17 08:15:34;;;;;;;3.40;3.10;;;3.00;62.10;;;;;;5044269;28;20245;-65
2023/12/17 08:18:01;;;;;;;3.27;3.00;;;3.10;59.70;;;;;;5046137;28;20222;-65
2023/12/17 08:20:27;;;;;;;2.93;2.77;;;3.30;59.10;;;;;;5037175;28;20308;-65
2023/12/17 08:22:57;;;;;;;3.50;3.20;;;3.60;58.30;;;;;;5044213;28;20724;-64
2023/12/17 08:25:24;;;;;;;3.27;3.03;;;3.90;58.10;;;;;;5045373;28;20813;-65
2023/12/17 08:27:50;;;;;;;3.30;3.00;;;4.30;56.40;;;;;;5041172;28;20248;-66
2023/12/17 08:30:17;;;;;;;3.03;2.83;;;4.60;54.80;;;;;;5048800;28;20719;-66
2023/12/17 08:32:45;;;;;;;2.97;2.70;;;4.80;52.60;;;;;;5042333;28;20230;-65
2023/12/17 08:35:12;;;;;;;3.20;3.00;;;4.70;52.00;;;;;;5047533;28;20297;-65
2023/12/17 08:37:38;;;;;;;3.47;2.43;;;4.90;53.00;;;;;;5048365;28;20258;-65
2023/12/17 08:40:05;;;;;;;3.03;2.83;;;5.20;52.00;;;;;;5046372;28;20378;-66
2023/12/17 08:42:31;;;;;;;2.60;2.40;;;5.10;50.50;;;;;;5049596;28;20202;-65
2023/12/17 08:44:58;;;;;;;2.73;2.50;;;5.20;51.30;;;;;;5043357;28;20234;-66
2023/12/17 08:47:24;;;;;;;2.90;2.70;;;5.60;50.10;;;;;;5043020;28;20485;-66
2023/12/17 08:49:51;;;;;;;2.70;2.57;;;5.10;50.40;;;;;;5048476;28;20216;-68
2023/12/17 08:52:17;;;;;;;2.90;2.70;;;5.30;50.30;;;;;;5043337;28;20237;-68
2023/12/17 08:54:44;;;;;;;2.80;2.60;;;5.60;50.10;;;;;;5058563;28;20213;-65
2023/12/17 08:57:10;;;;;;;2.70;2.50;;;5.70;48.80;;;;;;5044881;28;20233;-65
2023/12/17 08:59:37;;;;;;;2.80;2.60;;;5.60;48.50;;;;;;5047394;28;20300;-66
2023/12/17 09:02:03;;;;;;;2.93;2.70;;;5.90;49.70;;;;;;5044378;28;20300;-67
2023/12/17 09:04:30;;;;;;;2.80;2.60;;;6.20;48.70;;;;;;5044970;28;20251;-65
2023/12/17 09:06:56;;;;;;;3.00;2.80;;;6.30;47.70;;;;;;5040377;28;20250;-66
2023/12/17 09:09:23;;;;;;;3.03;2.70;;;6.30;48.40;;;;;;5031739;28;20989;-69
2023/12/17 09:11:49;;;;;;;2.93;2.63;;;6.60;47.40;;;;;;5043551;28;20203;-64
2023/12/17 09:14:15;;;;;;;3.27;2.80;;;6.80;46.20;;;;;;5045205;28;20251;-65
2023/12/17 09:16:42;;;;;;;3.60;2.90;;;7.10;46.40;;;;;;5041689;28;20474;-66
2023/12/17 09:19:08;;;;;;;3.43;3.13;;;7.20;45.70;;;;;;5047531;28;20636;-66
2023/12/17 09:21:35;;;;;;;2.90;2.70;;;7.10;46.00;;;;;;5050650;28;20216;-66
2023/12/17 09:24:03;;;;;;;3.10;2.87;;;7.20;44.80;;;;;;5037711;28;20237;-66
2023/12/17 09:26:30;;;;;;;3.33;3.13;;;7.30;45.60;;;;;;5036854;28;20257;-65
2023/12/17 09:28:56;;;;;;;2.97;2.67;;;7.50;44.80;;;;;;5052545;28;20286;-64
2023/12/17 09:31:23;;;;;;;5.57;3.40;;;7.60;43.50;;;;;;5041018;28;20740;-65
2023/12/17 09:33:49;;;;;;;2.80;2.53;;;7.80;43.60;;;;;;5039953;28;20233;-66
2023/12/17 09:36:16;;;;;;;3.10;2.80;;;7.40;43.30;;;;;;5040629;28;20758;-63
2023/12/17 09:38:42;;;;;;;2.20;2.10;;;7.90;43.00;;;;;;5046270;28;20230;-63
2023/12/17 09:41:09;;;;;;;3.23;2.47;;;7.90;43.30;;;;;;5045443;28;20297;-67
2023/12/17 09:43:35;;;;;;;2.87;2.40;;;7.90;43.00;;;;;;5043884;28;20217;-64
2023/12/17 09:46:02;;;;;;;2.60;2.40;;;8.20;42.60;;;;;;5016715;28;20657;-66
2023/12/17 09:48:28;;;;;;;3.00;2.40;;;8.40;41.70;;;;;;5050796;28;20230;-65
2023/12/17 09:50:55;;;;;;;6.73;2.50;;;8.20;41.90;;;;;;5044529;28;20213;-64
2023/12/17 09:53:21;;;;;;;2.30;2.13;;;8.30;41.30;;;;;;5044196;28;20208;-64
2023/12/17 09:55:48;;;;;;;2.70;2.50;;;8.70;42.10;;;;;;5050881;28;20254;-64
2023/12/17 09:58:14;;;;;;;3.03;2.30;;;8.80;39.90;;;;;;5039083;28;20299;-66
2023/12/17 10:00:42;;;;;;;2.63;1.90;;;8.90;38.90;;;;;;5047851;28;20561;-65
2023/12/17 10:03:12;;;;;;;2.70;2.50;;;9.10;39.20;;;;;;5048208;28;20211;-65
2023/12/17 10:05:38;;;;;;;2.87;2.27;;;9.20;38.90;;;;;;5049283;28;20652;-65
2023/12/17 10:08:05;;;;;;;3.80;2.73;;;9.30;39.90;;;;;;5053415;28;20252;-65
2023/12/17 10:10:32;;;;;;;3.17;2.87;;;9.80;38.10;;;;;;5045078;28;20257;-66
2023/12/17 10:12:58;;;;;;;3.87;2.63;;;9.90;37.80;;;;;;5048912;28;20218;-66
2023/12/17 10:15:25;;;;;;;3.43;2.50;;;9.90;37.60;;;;;;5048115;28;20416;-65
2023/12/17 10:17:51;;;;;;;2.50;2.30;;;10.00;36.50;;;;;;5053134;28;20582;-66
2023/12/17 10:20:18;;;;;;;3.23;2.30;;;10.20;36.40;;;;;;5053042;28;20210;-66
2023/12/17 10:22:45;;;;;;;2.70;2.50;;;10.50;35.70;;;;;;5044307;28;20289;-65
2023/12/17 10:25:11;;;;;;;2.20;2.00;;;10.50;35.70;;;;;;5045351;28;20887;-65
2023/12/17 10:27:38;;;;;;;2.57;2.37;;;10.80;36.00;;;;;;5052718;28;20266;-67
2023/12/17 10:30:06;;;;;;;3.77;2.40;;;10.90;35.10;;;;;;5042142;28;20237;-66
2023/12/17 10:32:32;;;;;;;2.60;2.37;;;11.10;34.90;;;;;;5052122;28;20230;-67
2023/12/17 10:34:59;;;;;;;2.67;2.20;;;11.50;35.70;;;;;;5052171;28;20229;-64
2023/12/17 10:37:25;;;;;;;2.97;2.13;;;11.30;34.30;;;;;;5052622;28;20312;-66
2023/12/17 10:39:53;;;;;;;2.57;2.37;;;11.50;34.10;;;;;;5052548;28;20636;-66
2023/12/17 10:42:19;;;;;;;2.40;2.20;;;12.00;33.90;;;;;;5052704;28;20242;-66
2023/12/17 10:44:46;;;;;;;2.53;2.33;;;12.30;32.90;;;;;;5039786;28;20292;-65
2023/12/17 10:47:13;;;;;;;2.70;2.40;;;12.30;32.50;;;;;;5032654;28;20234;-66
2023/12/17 10:49:39;;;;;;;2.60;2.40;;;;;;;;;;5050784;28;20318;-66
2023/12/17 10:52:06;;;;;;;2.93;2.50;;;12.60;31.10;;;;;;5052418;28;20651;-66
2023/12/17 10:54:32;;;;;;;5.23;2.70;;;12.80;33.00;;;;;;5051371;28;20211;-65
2023/12/17 10:56:59;;;;;;;2.70;2.50;;;13.00;31.70;;;;;;5052294;28;20362;-66
2023/12/17 10:59:25;;;;;;;2.80;2.47;;;12.70;31.60;;;;;;5051130;28;20199;-67
2023/12/17 11:01:52;;;;;;;4.63;2.83;;;12.70;31.80;;;;;;5048316;28;20286;-66
2023/12/17 11:04:18;;;;;;;5.40;2.80;;;12.70;30.70;;;;;;5052298;28;20276;-66
2023/12/17 11:06:45;;;;;;;2.90;2.50;;;13.00;30.10;;;;;;5051109;28;20277;-66
2023/12/17 11:09:11;;;;;;;3.23;2.93;;;13.20;30.00;;;;;;5052002;28;20484;-66
2023/12/17 11:11:38;;;;;;;2.57;2.37;;;13.60;30.00;;;;;;5052111;28;20248;-68
2023/12/17 11:14:04;;;;;;;3.40;2.20;;;15.00;28.90;;;;;;5052296;28;20255;-66
2023/12/17 11:16:31;;;;;;;2.93;2.60;;;16.20;27.20;;;;;;5051627;28;20256;-66
2023/12/17 11:18:57;;;;;;;4.27;2.73;;;17.10;25.30;;;;;;5051765;28;20240;-66
2023/12/17 11:21:26;;;;;;;4.97;2.77;;;17.30;25.40;;;;;;5052373;28;20245;-66
2023/12/17 11:23:52;;;;;;;3.57;2.70;;;17.50;25.20;;;;;;5043110;28;20401;-66
2023/12/17 11:26:19;;;;;;;3.43;2.43;;;17.80;24.50;;;;;;5051490;28;20226;-68
2023/12/17 11:28:45;;;;;;;2.63;2.43;;;18.30;24.40;;;;;;5052158;28;20215;-66
2023/12/17 11:31:12;;;;;;;2.53;2.30;;;18.20;24.00;;;;;;5040618;28;20618;-67
2023/12/17 11:33:39;;;;;;;3.00;2.70;;;18.80;23.90;;;;;;5039760;28;20703;-68
2023/12/17 11:36:05;;;;;;;4.23;2.30;;;18.70;23.80;;;;;;5039957;28;20226;-68
2023/12/17 11:38:31;;;;;;;2.30;2.10;;;17.40;24.70;;;;;;5041348;28;20608;-68
2023/12/17 11:40:58;;;;;;;4.30;2.40;;;15.40;26.00;;;;;;5049800;28;20233;-67
2023/12/17 11:43:25;;;;;;;2.67;2.47;;;14.20;27.40;;;;;;5047948;28;20692;-69
2023/12/17 11:45:51;;;;;;;4.28;2.80;;;13.90;29.40;;;;;;5042631;28;20222;-69
2023/12/17 11:48:18;;;;;;;3.45;2.50;;;13.60;28.70;;;;;;5041206;28;20233;-69
2023/12/17 11:50:44;;;;;;;3.33;3.03;;;14.00;28.50;;;;;;5040620;28;20221;-68
2023/12/17 11:53:12;;;;;;;3.15;2.92;;;14.20;27.70;;;;;;5046907;28;20202;-68
2023/12/17 11:55:38;;;;;;;3.28;2.97;;;14.00;28.10;;;;;;5049276;28;20379;-69
2023/12/17 11:58:05;;;;;;;4.05;2.65;;;13.90;28.10;;;;;;5042855;28;20256;-70
2023/12/17 12:00:31;;;;;;;5.00;3.22;;;13.30;28.90;;;;;;5042580;28;20244;-69
2023/12/17 12:02:58;;;;;;;6.28;3.33;;;12.90;29.00;;;;;;5048149;28;20245;-68
2023/12/17 12:05:24;;;;;;;3.43;2.87;;;12.60;31.00;;;;;;5042763;28;20266;-66
2023/12/17 12:07:51;;;;;;;4.57;3.13;;;12.30;30.70;;;;;;5035846;28;20229;-71
2023/12/17 12:10:17;;;;;;;3.13;2.60;;;12.20;31.00;;;;;;5042728;28;20231;-66
2023/12/17 12:12:44;;;;;;;4.67;2.60;;;12.00;30.90;;;;;;5042782;28;20247;-66
2023/12/17 12:15:10;;;;;;;3.50;3.00;;;11.90;30.70;;;;;;5050370;28;20229;-66
2023/12/17 12:17:37;;;;;;;2.80;2.60;;;11.70;30.50;;;;;;5050706;28;20265;-65
2023/12/17 12:20:04;;;;;;;3.47;2.87;;;11.60;31.50;;;;;;5042070;28;20242;-66
2023/12/17 12:22:30;;;;;;;4.13;2.90;;;11.70;32.10;;;;;;5035958;28;20261;-66
2023/12/17 12:24:57;;;;;;;3.07;2.00;;;11.40;31.10;;;;;;5035042;28;20320;-66
2023/12/17 12:27:23;;;;;;;2.93;2.63;;;11.50;31.30;;;;;;5039386;28;20316;-69
2023/12/17 12:29:50;;;;;;;2.80;2.60;;;11.30;31.70;;;;;;5048191;28;20588;-66
2023/12/17 12:32:16;;;;;;;3.27;2.80;;;11.40;32.30;;;;;;5042192;28;20212;-65
2023/12/17 12:34:45;;;;;;;2.93;2.73;;;11.50;32.60;;;;;;5043110;28;20237;-64
2023/12/17 12:37:11;;;;;;;3.60;3.30;;;11.60;32.50;;;;;;5044817;28;20308;-64
2023/12/17 12:39:38;;;;;;;2.97;2.60;;;11.40;31.80;;;;;;5048526;28;20243;-65
2023/12/17 12:42:04;;;;;;;4.13;2.70;;;11.30;32.50;;;;;;5042701;28;20660;-69
2023/12/17 12:44:30;;;;;;;2.50;2.30;;;11.50;32.60;;;;;;5040615;28;20249;-67
2023/12/17 12:46:57;;;;;;;3.80;2.80;;;11.60;32.00;;;;;;5039275;28;20252;-67
2023/12/17 12:49:24;;;;;;;4.17;2.70;;;11.60;32.20;;;;;;5038093;28;20342;-66
2023/12/17 12:51:50;;;;;;;2.90;2.70;;;11.60;31.90;;;;;;5042608;28;20264;-65